Time;durP1;ratioP1;P1;durP2;ratioP2;P2;SDS_P1;SDS_P2;PMS_P1;PMS_P2;Temp;Humidity;BMP_temperature;BMP_pressure;BME280_temperature;BME280_humidity;BME280_pressure;Samples;Min_cycle;Max_cycle;Signal;HPM_P1;HPM_P2
2022/10/07 00:01:02;;;;;;;32.97;25.03;;;18.20;92.50;;;;;;5059182;28;20588;-69
2022/10/07 00:03:30;;;;;;;28.03;25.00;;;18.10;92.20;;;;;;5060893;28;20226;-70
2022/10/07 00:06:03;;;;;;;29.57;25.03;;;18.10;92.20;;;;;;5056115;28;20265;-69
2022/10/07 00:08:30;;;;;;;27.27;23.90;;;18.10;92.30;;;;;;5045853;28;20205;-69
2022/10/07 00:11:03;;;;;;;29.63;25.67;;;18.10;92.30;;;;;;5040460;28;20638;-70
2022/10/07 00:13:31;;;;;;;28.47;24.83;;;18.10;92.40;;;;;;5059416;28;20231;-70
2022/10/07 00:16:09;;;;;;;26.77;23.87;;;18.10;92.40;;;;;;5058239;28;20601;-70
2022/10/07 00:18:37;;;;;;;30.60;24.03;;;18.10;92.40;;;;;;5065703;28;20196;-70
2022/10/07 00:21:07;;;;;;;28.97;25.87;;;18.10;92.40;;;;;;5063020;28;20197;-69
2022/10/07 00:23:35;;;;;;;28.87;25.80;;;18.00;92.40;;;;;;5063620;28;20194;-69
2022/10/07 00:26:04;;;;;;;29.87;26.73;;;18.00;92.40;;;;;;5057047;28;20639;-69
2022/10/07 00:28:32;;;;;;;34.27;25.40;;;18.00;92.40;;;;;;5063618;28;20278;-70
2022/10/07 00:31:03;;;;;;;30.90;25.70;;;18.00;92.50;;;;;;5065172;28;20286;-69
2022/10/07 00:33:33;;;;;;;28.77;25.53;;;18.00;92.50;;;;;;5048937;28;20307;-69
2022/10/07 00:36:00;;;;;;;30.93;27.10;;;18.00;92.40;;;;;;5046651;28;20221;-69
2022/10/07 00:38:27;;;;;;;31.03;27.63;;;17.90;92.40;;;;;;5059713;28;20608;-70
2022/10/07 00:40:54;;;;;;;31.63;28.17;;;17.90;92.40;;;;;;5045223;28;20201;-70
2022/10/07 00:43:31;;;;;;;30.60;26.87;;;17.90;92.40;;;;;;5059296;28;20597;-69
2022/10/07 00:46:23;;;;;;;34.53;26.87;;;17.90;92.70;;;;;;5040313;28;20203;-69
2022/10/07 00:48:50;;;;;;;31.50;27.07;;;17.90;92.50;;;;;;5048605;28;20280;-69
2022/10/07 00:51:17;;;;;;;31.90;28.50;;;17.80;92.40;;;;;;5054812;28;20195;-70
2022/10/07 00:53:48;;;;;;;37.47;30.13;;;17.80;92.80;;;;;;5062084;28;20203;-70
2022/10/07 00:56:16;;;;;;;33.93;28.33;;;17.80;92.50;;;;;;5054935;28;20254;-70
2022/10/07 00:58:45;;;;;;;33.43;28.23;;;17.80;92.50;;;;;;5054685;28;20206;-69
2022/10/07 01:01:13;;;;;;;36.13;29.47;;;17.70;92.30;;;;;;5058014;28;20258;-69
2022/10/07 01:03:41;;;;;;;33.57;28.90;;;17.70;92.30;;;;;;5044520;28;20206;-69
2022/10/07 01:06:09;;;;;;;30.60;27.10;;;17.70;92.30;;;;;;5045678;28;20215;-69
2022/10/07 01:08:39;;;;;;;31.40;28.07;;;17.70;92.40;;;;;;5046584;28;20242;-70
2022/10/07 01:11:20;;;;;;;35.07;27.53;;;17.70;92.30;;;;;;5052666;28;20683;-70
2022/10/07 01:14:10;;;;;;;40.10;30.40;;;17.60;92.20;;;;;;5061003;28;20228;-69
2022/10/07 01:16:43;;;;;;;38.20;31.50;;;17.50;91.90;;;;;;5050590;28;20232;-69
2022/10/07 01:19:33;;;;;;;33.90;29.47;;;17.40;92.10;;;;;;5055710;28;20282;-70
2022/10/07 01:22:30;;;;;;;38.77;29.37;;;17.40;92.40;;;;;;5059365;28;20198;-70
2022/10/07 01:25:18;;;;;;;37.00;29.70;;;17.30;92.50;;;;;;5061005;28;20206;-69
2022/10/07 01:27:51;;;;;;;36.70;30.73;;;17.20;92.70;;;;;;5044857;28;20214;-69
2022/10/07 01:30:19;;;;;;;36.97;32.03;;;17.20;92.80;;;;;;5046290;28;20302;-69
2022/10/07 01:32:55;;;;;;;42.50;32.80;;;17.20;93.00;;;;;;5028647;28;20209;-70
2022/10/07 01:35:26;;;;;;;39.10;32.27;;;17.10;93.10;;;;;;5051778;28;20249;-70
2022/10/07 01:37:59;;;;;;;49.47;31.83;;;17.10;93.10;;;;;;5040131;28;20200;-70
2022/10/07 01:41:03;;;;;;;55.00;30.57;;;17.00;93.30;;;;;;5036531;28;20209;-69
2022/10/07 01:43:32;;;;;;;56.37;31.03;;;17.00;93.60;;;;;;5011331;28;20272;-69
2022/10/07 01:46:01;;;;;;;62.17;33.87;;;17.00;93.90;;;;;;5061035;28;20234;-69
2022/10/07 01:48:31;;;;;;;62.40;33.70;;;17.00;94.20;;;;;;5041946;28;20210;-70
2022/10/07 01:51:00;;;;;;;89.03;34.37;;;17.00;94.40;;;;;;5045323;28;20214;-69
2022/10/07 01:53:43;;;;;;;73.90;40.13;;;17.00;94.50;;;;;;5044312;28;20235;-69
2022/10/07 01:56:10;;;;;;;49.73;35.77;;;17.10;94.60;;;;;;5045751;28;20250;-69
2022/10/07 01:59:09;;;;;;;43.67;32.77;;;17.10;94.60;;;;;;5048154;28;20213;-69
2022/10/07 02:01:58;;;;;;;53.53;31.57;;;17.10;94.60;;;;;;5032884;28;20207;-70
2022/10/07 02:05:11;;;;;;;61.47;30.80;;;17.10;94.40;;;;;;5030715;28;20640;-70
2022/10/07 02:08:03;;;;;;;45.73;32.07;;;17.10;94.40;;;;;;5038379;28;20255;-70
2022/10/07 02:10:57;;;;;;;37.00;30.53;;;17.10;94.30;;;;;;5041628;28;20206;-69
2022/10/07 02:13:36;;;;;;;44.80;29.73;;;17.00;94.20;;;;;;5023588;28;20587;-70
2022/10/07 02:16:18;;;;;;;45.03;31.37;;;17.00;94.10;;;;;;5052064;28;20705;-70
2022/10/07 02:18:50;;;;;;;41.00;29.47;;;17.00;94.00;;;;;;5034636;28;20718;-69
2022/10/07 02:21:21;;;;;;;38.67;29.20;;;17.00;93.90;;;;;;5046499;28;20191;-69
2022/10/07 02:23:48;;;;;;;42.07;31.33;;;16.90;93.90;;;;;;5042884;28;20553;-70
2022/10/07 02:26:19;;;;;;;36.67;31.47;;;16.90;93.80;;;;;;5062588;28;20203;-69
2022/10/07 02:28:51;;;;;;;43.27;30.23;;;16.90;93.80;;;;;;5064893;28;20201;-69
2022/10/07 02:31:27;;;;;;;62.87;26.87;;;16.90;93.80;;;;;;5055596;28;20228;-69
2022/10/07 02:33:57;;;;;;;89.50;28.40;;;16.80;93.70;;;;;;5063288;28;20195;-69
2022/10/07 02:36:30;;;;;;;43.77;30.00;;;16.80;93.60;;;;;;5060087;28;20548;-69
2022/10/07 02:39:00;;;;;;;47.37;27.63;;;16.80;93.50;;;;;;5051826;28;20204;-69
2022/10/07 02:41:42;;;;;;;55.07;27.47;;;16.80;93.50;;;;;;5048028;28;20216;-70
2022/10/07 02:44:28;;;;;;;36.73;25.87;;;16.70;93.40;;;;;;5044565;28;20218;-70
2022/10/07 02:47:13;;;;;;;29.77;26.77;;;16.70;93.40;;;;;;5052928;28;20212;-70
2022/10/07 02:49:44;;;;;;;30.63;25.53;;;16.70;93.30;;;;;;5047310;28;20250;-70
2022/10/07 02:52:15;;;;;;;34.07;24.30;;;16.60;93.30;;;;;;5061982;28;20802;-70
2022/10/07 02:54:58;;;;;;;40.57;24.53;;;16.60;93.20;;;;;;5050344;28;20543;-69
2022/10/07 02:57:30;;;;;;;30.63;24.30;;;16.50;93.10;;;;;;5046230;28;20671;-69
2022/10/07 02:59:59;;;;;;;28.30;23.03;;;16.50;93.40;;;;;;5051865;28;20233;-69
2022/10/07 03:02:45;;;;;;;26.50;23.70;;;16.40;93.10;;;;;;5046732;28;20213;-69
2022/10/07 03:05:13;;;;;;;25.07;22.43;;;16.40;93.10;;;;;;5058977;28;20599;-69
2022/10/07 03:07:40;;;;;;;21.67;19.37;;;16.40;93.10;;;;;;5058728;28;20262;-70
2022/10/07 03:10:09;;;;;;;20.07;18.23;;;16.40;93.10;;;;;;5046668;28;20204;-69
2022/10/07 03:12:36;;;;;;;20.03;18.23;;;16.30;93.10;;;;;;5045860;28;20229;-69
2022/10/07 03:15:04;;;;;;;19.77;17.50;;;16.30;93.10;;;;;;5045044;28;20201;-69
2022/10/07 03:17:31;;;;;;;20.30;18.23;;;16.20;93.10;;;;;;5044557;28;20592;-70
2022/10/07 03:19:58;;;;;;;19.17;17.17;;;16.20;93.00;;;;;;5045615;28;20198;-70
2022/10/07 03:22:25;;;;;;;21.03;18.97;;;16.20;93.00;;;;;;5050321;28;20222;-69
2022/10/07 03:24:53;;;;;;;24.33;18.77;;;16.20;92.90;;;;;;5048804;28;20631;-69
2022/10/07 03:27:20;;;;;;;20.13;18.20;;;16.10;93.00;;;;;;5042393;28;20678;-69
2022/10/07 03:29:48;;;;;;;20.80;18.70;;;16.10;92.70;;;;;;5052568;28;20224;-69
2022/10/07 03:32:15;;;;;;;20.63;18.63;;;16.00;92.70;;;;;;5044607;28;20202;-70
2022/10/07 03:34:42;;;;;;;21.30;19.30;;;16.00;92.70;;;;;;5058282;28;20557;-69
2022/10/07 03:37:09;;;;;;;20.10;18.03;;;16.00;92.60;;;;;;5052070;28;20728;-69
2022/10/07 03:39:36;;;;;;;20.50;18.43;;;15.90;92.60;;;;;;5043329;28;20275;-69
2022/10/07 03:42:04;;;;;;;20.40;18.43;;;15.90;92.60;;;;;;5054713;28;20206;-69
2022/10/07 03:44:32;;;;;;;20.30;18.37;;;15.90;92.50;;;;;;5044178;28;20309;-70
2022/10/07 03:47:00;;;;;;;20.90;18.90;;;15.90;92.50;;;;;;5047616;28;20217;-70
2022/10/07 03:49:27;;;;;;;20.87;18.83;;;15.90;92.50;;;;;;5049561;28;20688;-70
2022/10/07 03:51:55;;;;;;;24.10;18.47;;;15.80;92.50;;;;;;5044148;28;20272;-69
2022/10/07 03:54:22;;;;;;;20.03;18.03;;;15.80;92.40;;;;;;5045579;28;20209;-69
2022/10/07 03:56:50;;;;;;;18.23;16.50;;;15.80;92.40;;;;;;5049243;28;20234;-69
2022/10/07 03:59:17;;;;;;;19.67;17.40;;;15.70;92.50;;;;;;5049007;28;20210;-69
2022/10/07 04:01:44;;;;;;;19.97;18.07;;;15.80;92.60;;;;;;5048067;28;20557;-70
2022/10/07 04:04:11;;;;;;;21.27;19.27;;;15.80;92.60;;;;;;5045344;28;20716;-70
2022/10/07 04:06:41;;;;;;;21.27;19.07;;;15.80;92.60;;;;;;5043730;28;20337;-69
2022/10/07 04:09:12;;;;;;;20.87;18.83;;;15.70;92.70;;;;;;5034824;28;20657;-69
2022/10/07 04:11:40;;;;;;;23.10;19.30;;;15.70;92.70;;;;;;5052907;28;20612;-69
2022/10/07 04:14:08;;;;;;;23.93;19.07;;;15.70;92.70;;;;;;5046139;28;20214;-69
2022/10/07 04:16:37;;;;;;;21.50;19.27;;;15.70;92.80;;;;;;5043662;28;20234;-69
2022/10/07 04:19:07;;;;;;;20.43;18.60;;;15.70;92.80;;;;;;5040975;28;20210;-69
2022/10/07 04:21:34;;;;;;;22.77;20.33;;;15.70;92.80;;;;;;5043840;28;20217;-69
2022/10/07 04:24:03;;;;;;;20.97;18.87;;;15.60;92.80;;;;;;5045646;28;20216;-69
2022/10/07 04:26:30;;;;;;;20.73;18.83;;;15.60;92.80;;;;;;5051255;28;20263;-69
2022/10/07 04:28:58;;;;;;;21.40;19.33;;;15.60;92.80;;;;;;5055332;28;20534;-70
2022/10/07 04:31:26;;;;;;;21.93;19.73;;;15.60;92.80;;;;;;5054685;28;20203;-70
2022/10/07 04:33:58;;;;;;;21.57;19.53;;;15.60;92.70;;;;;;5045037;28;20293;-69
2022/10/07 04:36:31;;;;;;;21.40;19.30;;;15.60;92.80;;;;;;5047252;28;20731;-70
2022/10/07 04:39:05;;;;;;;23.00;20.73;;;15.60;92.80;;;;;;5046110;28;20513;-69
2022/10/07 04:41:35;;;;;;;24.60;21.97;;;15.60;92.80;;;;;;5045450;28;20201;-69
2022/10/07 04:44:06;;;;;;;24.50;22.13;;;15.60;92.80;;;;;;5046219;28;20229;-69
2022/10/07 04:46:39;;;;;;;23.87;21.57;;;15.60;92.90;;;;;;5043899;28;20320;-69
2022/10/07 04:49:11;;;;;;;25.70;23.00;;;15.60;93.00;;;;;;5026074;28;20218;-69
2022/10/07 04:51:38;;;;;;;29.90;24.70;;;15.60;93.10;;;;;;5053506;28;20284;-69
2022/10/07 04:54:05;;;;;;;31.07;27.73;;;15.60;93.20;;;;;;5039752;28;20212;-69
2022/10/07 04:56:48;;;;;;;36.37;28.83;;;15.70;93.30;;;;;;5043372;28;20319;-70
2022/10/07 04:59:19;;;;;;;34.00;27.97;;;15.60;93.30;;;;;;5051770;28;20217;-70
2022/10/07 05:01:50;;;;;;;34.50;29.10;;;15.70;93.40;;;;;;5039812;28;20225;-69
2022/10/07 05:04:17;;;;;;;46.33;29.83;;;15.70;93.50;;;;;;5047336;28;20202;-70
2022/10/07 05:06:45;;;;;;;38.87;29.77;;;15.70;93.50;;;;;;5041824;28;20207;-69
2022/10/07 05:09:13;;;;;;;33.90;28.77;;;15.70;93.60;;;;;;5042704;28;20207;-69
2022/10/07 05:11:43;;;;;;;36.37;29.73;;;15.70;93.60;;;;;;5039121;28;20202;-69
2022/10/07 05:14:20;;;;;;;34.30;29.83;;;15.80;93.70;;;;;;5047226;28;20631;-69
2022/10/07 05:16:49;;;;;;;38.00;30.53;;;15.80;93.80;;;;;;5042372;28;20241;-69
2022/10/07 05:19:19;;;;;;;33.10;29.37;;;15.80;93.80;;;;;;5045460;28;20655;-69
2022/10/07 05:21:47;;;;;;;33.93;30.43;;;15.80;93.80;;;;;;5040450;28;20637;-69
2022/10/07 05:24:14;;;;;;;34.30;29.53;;;15.80;93.80;;;;;;5052725;28;20198;-69
2022/10/07 05:26:42;;;;;;;35.60;31.60;;;15.80;94.10;;;;;;5052885;28;20737;-69
2022/10/07 05:29:09;;;;;;;40.63;33.37;;;15.90;93.90;;;;;;5043776;28;20210;-69
2022/10/07 05:31:48;;;;;;;43.93;36.13;;;15.90;94.00;;;;;;5049713;28;20209;-70
2022/10/07 05:34:19;;;;;;;52.57;37.00;;;16.00;94.00;;;;;;5043083;28;20198;-70
2022/10/07 05:36:46;;;;;;;51.37;37.73;;;16.00;94.10;;;;;;5047715;28;20229;-69
2022/10/07 05:39:13;;;;;;;45.67;40.23;;;16.00;94.20;;;;;;5041820;28;20586;-69
2022/10/07 05:41:48;;;;;;;63.13;42.37;;;16.10;94.30;;;;;;5043560;28;20228;-69
2022/10/07 05:44:18;;;;;;;62.30;45.40;;;16.10;94.40;;;;;;5021409;28;20213;-69
2022/10/07 05:46:48;;;;;;;67.33;49.33;;;16.20;94.50;;;;;;5034877;28;20209;-69
2022/10/07 05:49:16;;;;;;;81.90;49.43;;;16.20;94.60;;;;;;5045053;28;20516;-70
2022/10/07 05:51:43;;;;;;;74.00;48.93;;;16.20;94.70;;;;;;5043791;28;20309;-69
2022/10/07 05:54:10;;;;;;;79.47;53.10;;;16.30;94.70;;;;;;5040410;28;20194;-69
2022/10/07 05:56:43;;;;;;;79.10;51.60;;;16.30;94.80;;;;;;5042334;28;20246;-69
2022/10/07 05:59:10;;;;;;;72.77;52.87;;;16.40;94.80;;;;;;5047224;28;20210;-69
2022/10/07 06:01:41;;;;;;;69.07;51.63;;;16.40;94.80;;;;;;5043681;28;20202;-69
2022/10/07 06:04:13;;;;;;;70.97;50.90;;;16.40;94.80;;;;;;5042890;28;20198;-69
2022/10/07 06:06:44;;;;;;;66.73;51.17;;;16.50;94.80;;;;;;5037866;28;20301;-69
2022/10/07 06:14:49;;;;;;;59.40;46.17;;;16.60;94.70;;;;;;5045464;28;20702;-69
2022/10/07 06:17:16;;;;;;;61.30;46.10;;;16.60;94.60;;;;;;5043879;28;20687;-69
2022/10/07 06:19:45;;;;;;;62.30;47.23;;;16.70;94.60;;;;;;5046565;28;20247;-69
2022/10/07 06:22:13;;;;;;;58.40;44.67;;;16.60;94.50;;;;;;5043460;28;20210;-69
2022/10/07 06:24:42;;;;;;;65.33;46.73;;;16.70;94.40;;;;;;5045286;28;20221;-69
2022/10/07 06:27:10;;;;;;;58.23;45.43;;;16.70;94.30;;;;;;5043599;28;20241;-69
2022/10/07 06:29:38;;;;;;;59.40;45.83;;;16.80;94.30;;;;;;5042747;28;20268;-70
2022/10/07 06:32:05;;;;;;;60.17;47.43;;;16.80;94.20;;;;;;5044071;28;20207;-69
2022/10/07 06:34:32;;;;;;;59.43;46.43;;;16.80;94.20;;;;;;5038419;28;20234;-69
2022/10/07 06:37:00;;;;;;;63.57;47.93;;;16.90;94.20;;;;;;5045083;28;20528;-69
2022/10/07 06:39:27;;;;;;;61.60;47.17;;;16.90;94.10;;;;;;5048508;28;20225;-69
2022/10/07 06:41:55;;;;;;;60.07;47.23;;;16.90;94.00;;;;;;5041888;28;20222;-69
2022/10/07 06:44:44;;;;;;;60.00;47.33;;;17.00;94.00;;;;;;5050970;28;20226;-69
2022/10/07 06:47:16;;;;;;;59.97;47.50;;;17.00;93.90;;;;;;5039203;28;20232;-69
2022/10/07 06:49:44;;;;;;;70.23;50.40;;;17.10;93.90;;;;;;5041302;28;20202;-69
2022/10/07 06:52:12;;;;;;;68.80;50.43;;;17.10;93.90;;;;;;5058930;28;20248;-69
2022/10/07 06:54:40;;;;;;;64.33;47.80;;;17.20;93.90;;;;;;5048806;28;20216;-70
2022/10/07 06:57:09;;;;;;;60.43;47.50;;;17.20;93.80;;;;;;5039997;28;20585;-70
2022/10/07 06:59:56;;;;;;;61.43;48.57;;;17.30;93.90;;;;;;5043571;28;20252;-70
2022/10/07 07:02:24;;;;;;;68.83;47.97;;;17.30;93.70;;;;;;5046465;28;20267;-70
2022/10/07 07:04:53;;;;;;;66.13;50.37;;;17.40;93.70;;;;;;5048605;28;20631;-70
2022/10/07 07:07:24;;;;;;;60.70;49.93;;;17.40;93.70;;;;;;5037264;28;20229;-70
2022/10/07 07:09:52;;;;;;;62.40;49.40;;;17.50;93.70;;;;;;5041654;28;20307;-71
2022/10/07 07:12:24;;;;;;;67.07;49.13;;;17.60;93.70;;;;;;5044787;28;20255;-70
2022/10/07 07:14:53;;;;;;;62.50;47.90;;;17.70;93.70;;;;;;5045060;28;20233;-70
2022/10/07 07:17:20;;;;;;;65.93;48.87;;;17.80;93.60;;;;;;5046895;28;20332;-70
2022/10/07 07:19:47;;;;;;;70.33;50.30;;;17.80;93.60;;;;;;5059808;28;20242;-70
2022/10/07 07:22:15;;;;;;;63.87;48.23;;;17.90;93.50;;;;;;5051887;28;20253;-70
2022/10/07 07:24:43;;;;;;;62.23;47.07;;;18.10;93.60;;;;;;5051078;28;20605;-71
2022/10/07 07:27:11;;;;;;;59.90;47.50;;;18.20;93.50;;;;;;5046686;28;20201;-71
2022/10/07 07:29:38;;;;;;;59.93;46.77;;;18.40;93.40;;;;;;5050247;28;20216;-71
2022/10/07 07:32:07;;;;;;;60.83;47.50;;;18.50;93.20;;;;;;5044038;28;20211;-71
2022/10/07 07:34:37;;;;;;;60.47;47.07;;;18.70;93.00;;;;;;5049470;28;20223;-71
2022/10/07 07:37:06;;;;;;;58.00;46.70;;;18.80;92.70;;;;;;5044435;28;20259;-71
2022/10/07 07:39:41;;;;;;;58.23;44.87;;;19.00;92.50;;;;;;5042133;28;20979;-71
2022/10/07 07:42:12;;;;;;;56.30;45.07;;;19.10;92.30;;;;;;5061840;28;20227;-71
2022/10/07 07:44:39;;;;;;;58.87;45.03;;;19.30;92.30;;;;;;5046734;28;20215;-71
2022/10/07 07:47:09;;;;;;;53.43;44.73;;;19.40;92.10;;;;;;5047952;28;20235;-71
2022/10/07 07:49:38;;;;;;;54.10;43.20;;;19.60;91.80;;;;;;5054463;28;20652;-71
2022/10/07 07:52:08;;;;;;;55.87;45.17;;;19.80;91.50;;;;;;5048285;28;20665;-71
2022/10/07 07:54:41;;;;;;;56.73;45.30;;;20.00;91.20;;;;;;5045241;28;20814;-71
2022/10/07 07:57:09;;;;;;;54.97;43.83;;;20.20;90.90;;;;;;5045749;28;20677;-71
2022/10/07 07:59:37;;;;;;;54.27;45.07;;;20.40;90.50;;;;;;5050349;28;20201;-71
2022/10/07 08:02:06;;;;;;;58.27;45.80;;;20.50;90.10;;;;;;5040373;28;20305;-71
2022/10/07 08:04:36;;;;;;;52.17;44.27;;;20.60;89.50;;;;;;5044761;28;20292;-70
2022/10/07 08:07:04;;;;;;;57.13;44.07;;;20.80;88.80;;;;;;5049671;28;20554;-71
2022/10/07 08:09:31;;;;;;;50.00;44.23;;;20.90;87.10;;;;;;5025389;28;20727;-71
2022/10/07 08:11:59;;;;;;;53.03;43.23;;;20.90;86.30;;;;;;5050708;28;20270;-71
2022/10/07 08:14:27;;;;;;;58.27;43.83;;;21.00;85.90;;;;;;5042944;28;20292;-71
2022/10/07 08:16:56;;;;;;;56.07;43.13;;;21.10;85.90;;;;;;5045662;28;20232;-71
2022/10/07 08:19:29;;;;;;;51.60;43.00;;;21.20;84.30;;;;;;5033849;28;20206;-71
2022/10/07 08:21:57;;;;;;;55.57;41.70;;;21.30;84.00;;;;;;5039091;28;20264;-71
2022/10/07 08:24:26;;;;;;;49.57;41.37;;;21.30;83.40;;;;;;5049633;28;20193;-71
2022/10/07 08:26:53;;;;;;;46.43;40.30;;;21.40;82.90;;;;;;5050612;28;20216;-71
2022/10/07 08:29:21;;;;;;;47.30;40.03;;;21.40;82.70;;;;;;5046807;28;20202;-70
2022/10/07 08:31:48;;;;;;;49.50;41.23;;;21.50;81.50;;;;;;5039168;28;20199;-69
2022/10/07 08:34:16;;;;;;;45.87;39.20;;;21.60;81.60;;;;;;5058440;28;20539;-69
2022/10/07 08:36:46;;;;;;;42.50;37.67;;;21.70;82.10;;;;;;5053819;28;20255;-68
2022/10/07 08:39:14;;;;;;;39.20;34.63;;;21.90;81.30;;;;;;5059752;28;20228;-69
2022/10/07 08:41:49;;;;;;;41.47;34.83;;;22.00;79.30;;;;;;5048573;28;20201;-69
2022/10/07 08:44:31;;;;;;;38.20;32.83;;;22.00;78.30;;;;;;5058599;28;20251;-69
2022/10/07 08:47:01;;;;;;;42.20;34.10;;;22.00;78.20;;;;;;5060280;28;20214;-67
2022/10/07 08:50:03;;;;;;;39.90;34.27;;;22.10;78.50;;;;;;5060758;28;20213;-70
2022/10/07 08:52:53;;;;;;;34.70;30.97;;;22.30;77.10;;;;;;5053609;28;20237;-70
2022/10/07 08:55:41;;;;;;;37.23;30.87;;;22.30;75.40;;;;;;5057318;28;20639;-66
2022/10/07 08:58:25;;;;;;;39.30;31.87;;;22.30;75.90;;;;;;5053484;28;20659;-70
2022/10/07 09:01:05;;;;;;;33.20;28.83;;;22.40;75.10;;;;;;5061086;28;20201;-70
2022/10/07 09:03:52;;;;;;;31.93;28.43;;;22.50;74.10;;;;;;5054641;28;20199;-72
2022/10/07 09:06:41;;;;;;;37.80;30.73;;;22.50;73.70;;;;;;5046693;28;20271;-72
2022/10/07 09:09:21;;;;;;;37.07;30.43;;;22.60;73.90;;;;;;5034483;28;20203;-68
2022/10/07 09:11:50;;;;;;;38.80;30.47;;;22.60;73.40;;;;;;5051324;28;20259;-72
2022/10/07 09:14:41;;;;;;;34.20;27.43;;;22.70;74.10;;;;;;5038327;28;20523;-70
2022/10/07 09:17:18;;;;;;;30.27;25.67;;;22.90;73.60;;;;;;5048917;28;20219;-69
2022/10/07 09:19:48;;;;;;;35.17;26.27;;;23.00;72.90;;;;;;5059913;28;20202;-70
2022/10/07 09:22:20;;;;;;;29.13;23.37;;;23.30;72.90;;;;;;5061991;28;20201;-71
2022/10/07 09:24:51;;;;;;;36.03;24.90;;;23.40;70.20;;;;;;5039296;28;20205;-73
2022/10/07 09:27:21;;;;;;;31.50;21.77;;;23.60;69.60;;;;;;5058140;28;20205;-68
2022/10/07 09:29:50;;;;;;;24.53;21.33;;;23.70;69.60;;;;;;5062518;28;20233;-70
2022/10/07 09:32:18;;;;;;;24.40;18.03;;;23.80;69.70;;;;;;5060355;28;20259;-70
2022/10/07 09:34:45;;;;;;;20.20;18.10;;;23.90;69.10;;;;;;5060345;28;20203;-69
2022/10/07 09:37:22;;;;;;;20.13;18.03;;;24.10;68.40;;;;;;5055726;28;20655;-68
2022/10/07 09:39:52;;;;;;;18.57;14.87;;;24.20;65.90;;;;;;5063476;28;20194;-69
2022/10/07 09:42:30;;;;;;;21.17;15.60;;;24.30;64.30;;;;;;5060492;28;20207;-69
2022/10/07 09:45:01;;;;;;;23.87;19.23;;;24.30;63.90;;;;;;5039574;28;20591;-70
2022/10/07 09:47:36;;;;;;;24.37;18.93;;;24.30;64.60;;;;;;5055168;28;20194;-69
2022/10/07 09:50:03;;;;;;;15.50;13.30;;;24.40;65.20;;;;;;5060426;28;20194;-72
2022/10/07 09:52:31;;;;;;;14.67;12.83;;;24.50;64.40;;;;;;5046355;28;20268;-70
2022/10/07 09:55:28;;;;;;;15.33;13.37;;;24.50;63.40;;;;;;5058336;28;20206;-69
2022/10/07 09:58:00;;;;;;;15.27;13.67;;;24.70;62.10;;;;;;5060662;28;20617;-68
2022/10/07 10:00:28;;;;;;;16.03;14.10;;;24.80;61.60;;;;;;5058461;28;20243;-72
2022/10/07 10:03:06;;;;;;;16.73;14.00;;;24.80;61.00;;;;;;5051605;28;20256;-67
2022/10/07 10:05:39;;;;;;;18.63;14.60;;;24.80;61.40;;;;;;5054993;28;20208;-70
2022/10/07 10:08:12;;;;;;;12.77;11.50;;;24.80;60.70;;;;;;5044100;28;20210;-68
2022/10/07 10:10:58;;;;;;;15.63;12.47;;;24.80;59.70;;;;;;5045791;28;20511;-69
2022/10/07 10:13:27;;;;;;;20.10;12.07;;;24.80;59.80;;;;;;5040829;28;20209;-69
2022/10/07 10:15:54;;;;;;;14.33;11.43;;;24.80;60.40;;;;;;5045855;28;20670;-69
2022/10/07 10:18:27;;;;;;;14.03;12.57;;;24.90;60.50;;;;;;5060358;28;20373;-68
2022/10/07 10:20:54;;;;;;;16.07;12.00;;;25.00;60.90;;;;;;5058456;28;20618;-71
2022/10/07 10:23:32;;;;;;;11.40;10.03;;;25.20;60.80;;;;;;5060208;28;20272;-68
2022/10/07 10:29:23;;;;;;;11.60;9.33;;;25.30;57.90;;;;;;5054894;28;20203;-69
2022/10/07 10:32:14;;;;;;;12.33;10.23;;;25.30;57.90;;;;;;5059983;28;20206;-67
2022/10/07 10:34:47;;;;;;;12.93;10.10;;;25.30;57.80;;;;;;5062061;28;20211;-70
2022/10/07 10:37:38;;;;;;;12.53;10.30;;;25.40;58.20;;;;;;5051725;28;20626;-69
2022/10/07 10:40:23;;;;;;;10.47;8.67;;;25.50;58.10;;;;;;5066418;28;20263;-68
2022/10/07 10:43:24;;;;;;;11.50;8.53;;;25.50;56.60;;;;;;5063593;28;20574;-69
2022/10/07 10:46:12;;;;;;;12.33;10.00;;;25.50;56.50;;;;;;5062412;28;20264;-69
2022/10/07 10:49:05;;;;;;;12.70;9.03;;;25.40;57.30;;;;;;5057411;28;20198;-68
2022/10/07 10:51:41;;;;;;;13.57;9.20;;;25.40;57.00;;;;;;5065502;28;20213;-69
2022/10/07 10:54:42;;;;;;;14.20;10.00;;;25.40;57.20;;;;;;5046986;28;20244;-66
2022/10/07 10:57:17;;;;;;;11.23;8.60;;;25.60;56.90;;;;;;5019233;28;1214377;-67
2022/10/07 11:00:14;;;;;;;10.70;8.43;;;25.80;56.60;;;;;;5061446;28;20206;-66
2022/10/07 11:03:03;;;;;;;9.90;8.03;;;25.80;55.70;;;;;;5062207;28;20579;-65
2022/10/07 11:05:34;;;;;;;13.07;8.43;;;25.80;54.80;;;;;;5064067;28;20265;-66
2022/10/07 11:08:37;;;;;;;16.43;9.67;;;25.80;55.50;;;;;;5064544;28;20670;-67
2022/10/07 11:11:18;;;;;;;12.77;9.07;;;25.90;55.70;;;;;;4992628;28;20209;-68
2022/10/07 11:13:53;;;;;;;9.90;7.83;;;26.00;54.20;;;;;;5056985;28;20218;-67
2022/10/07 11:16:40;;;;;;;7.80;7.00;;;26.00;55.20;;;;;;5060620;28;20206;-67
2022/10/07 11:19:15;;;;;;;10.30;7.70;;;26.10;56.30;;;;;;5062278;28;20288;-67
2022/10/07 11:21:48;;;;;;;11.77;8.57;;;26.20;55.80;;;;;;5060547;28;20195;-68
2022/10/07 11:24:40;;;;;;;10.50;8.13;;;26.20;55.10;;;;;;5062963;28;20198;-64
2022/10/07 11:27:26;;;;;;;9.43;8.17;;;26.20;54.00;;;;;;5062598;28;20195;-64
2022/10/07 11:30:17;;;;;;;15.47;7.93;;;26.10;54.00;;;;;;5059828;28;20262;-69
2022/10/07 11:32:54;;;;;;;9.47;7.37;;;26.10;54.30;;;;;;5065737;28;20259;-67
2022/10/07 11:35:31;;;;;;;10.80;6.70;;;26.10;55.00;;;;;;5062836;28;20201;-68
2022/10/07 11:38:13;;;;;;;9.07;6.77;;;26.20;53.90;;;;;;5064892;28;20213;-68
2022/10/07 11:41:14;;;;;;;9.93;7.97;;;26.20;54.00;;;;;;5059348;28;20273;-68
2022/10/07 11:43:47;;;;;;;13.33;6.63;;;26.30;53.30;;;;;;5061653;28;20201;-69
2022/10/07 11:46:33;;;;;;;10.63;7.53;;;26.30;53.70;;;;;;5064744;28;20218;-69
2022/10/07 11:49:32;;;;;;;13.77;6.40;;;26.30;53.10;;;;;;5064289;28;20198;-69
2022/10/07 11:52:04;;;;;;;7.27;6.57;;;26.40;52.80;;;;;;5058282;28;20252;-69
2022/10/07 11:54:42;;;;;;;9.57;6.00;;;26.40;53.50;;;;;;5059429;28;20265;-69
2022/10/07 11:57:23;;;;;;;8.53;7.00;;;26.50;53.80;;;;;;5061372;28;20233;-69
2022/10/07 12:00:01;;;;;;;10.33;7.73;;;26.50;52.90;;;;;;5062686;28;20209;-69
2022/10/07 12:02:44;;;;;;;12.17;8.00;;;26.60;52.90;;;;;;5059309;28;20221;-69
2022/10/07 12:05:33;;;;;;;11.70;6.30;;;26.60;52.80;;;;;;5060934;28;20186;-69
2022/10/07 12:08:22;;;;;;;8.20;7.10;;;26.60;52.80;;;;;;5061030;28;20198;-68
2022/10/07 12:10:53;;;;;;;12.43;6.90;;;26.60;53.00;;;;;;5063924;28;20198;-69
2022/10/07 12:13:20;;;;;;;12.93;7.57;;;26.60;52.50;;;;;;5054332;28;20209;-69
2022/10/07 12:15:49;;;;;;;7.90;5.90;;;26.60;51.70;;;;;;5058672;28;20205;-69
2022/10/07 12:18:26;;;;;;;8.60;6.50;;;26.60;51.60;;;;;;5048765;28;20322;-69
2022/10/07 12:21:02;;;;;;;8.77;6.83;;;26.60;51.60;;;;;;5043145;28;20239;-69
2022/10/07 12:23:29;;;;;;;10.57;5.10;;;26.60;52.70;;;;;;5063796;28;20191;-69
2022/10/07 12:26:30;;;;;;;6.93;5.50;;;26.60;53.00;;;;;;5052715;28;20216;-69
2022/10/07 12:28:57;;;;;;;7.20;5.63;;;26.70;53.00;;;;;;5062510;28;20212;-70
2022/10/07 12:31:24;;;;;;;10.77;5.87;;;26.80;52.50;;;;;;5052882;28;20202;-70
2022/10/07 12:34:03;;;;;;;9.60;6.07;;;26.80;52.40;;;;;;5056471;28;20204;-70
2022/10/07 12:36:31;;;;;;;8.33;5.40;;;26.90;51.90;;;;;;5057912;28;20203;-69
2022/10/07 12:39:01;;;;;;;9.33;6.03;;;26.90;52.20;;;;;;5045528;28;20215;-70
2022/10/07 12:41:29;;;;;;;12.83;6.67;;;26.90;52.50;;;;;;5058179;28;20205;-69
2022/10/07 12:44:16;;;;;;;10.03;5.07;;;26.90;52.10;;;;;;5044093;28;20205;-69
2022/10/07 12:46:51;;;;;;;7.60;6.40;;;27.00;52.30;;;;;;5059395;28;20199;-69
2022/10/07 12:49:39;;;;;;;11.97;6.97;;;27.00;51.70;;;;;;5040870;28;20204;-69
2022/10/07 12:52:25;;;;;;;10.23;7.13;;;27.00;50.20;;;;;;5058760;28;20208;-70
2022/10/07 12:54:57;;;;;;;9.00;6.67;;;26.90;50.90;;;;;;5058858;28;20238;-70
2022/10/07 12:57:35;;;;;;;9.40;6.80;;;26.70;50.90;;;;;;5056941;28;20238;-69
2022/10/07 13:00:13;;;;;;;8.23;5.57;;;26.70;50.40;;;;;;5058147;28;20214;-67
2022/10/07 13:02:55;;;;;;;9.17;7.97;;;26.60;50.90;;;;;;5058529;28;20264;-69
2022/10/07 13:05:42;;;;;;;10.03;6.73;;;26.60;50.20;;;;;;5042669;28;20193;-67
2022/10/07 13:08:47;;;;;;;9.13;6.10;;;26.60;51.40;;;;;;5057449;28;20194;-67
2022/10/07 13:11:34;;;;;;;7.17;5.60;;;26.50;51.30;;;;;;5060999;28;20586;-68
2022/10/07 13:14:23;;;;;;;7.53;5.57;;;26.50;51.00;;;;;;5062064;28;20231;-65